Time;durP1;ratioP1;P1;durP2;ratioP2;P2;SDS_P1;SDS_P2;PMS_P1;PMS_P2;Temp;Humidity;BMP_temperature;BMP_pressure;BME280_temperature;BME280_humidity;BME280_pressure;Samples;Min_cycle;Max_cycle;Signal;HPM_P1;HPM_P2
2022/06/27 00:01:17;;;;;;;10.35;6.43;;;;;;;;;;5076405;28;20438;-76
2022/06/27 00:03:43;;;;;;;7.60;6.75;;;;;;;;;;5074425;28;20475;-76
2022/06/27 00:06:10;;;;;;;7.53;6.40;;;;;;;;;;5075179;28;20927;-76
2022/06/27 00:08:36;;;;;;;7.60;5.20;;;;;;;;;;5075621;28;20428;-76
2022/06/27 00:11:04;;;;;;;6.72;6.03;;;;;;;;;;5074015;28;20468;-76
2022/06/27 00:13:30;;;;;;;9.95;6.90;;;;;;;;;;5072933;28;20501;-76
2022/06/27 00:15:57;;;;;;;10.70;6.85;;;;;;;;;;5076541;28;20801;-76
2022/06/27 00:18:23;;;;;;;10.30;6.60;;;;;;;;;;5067843;28;20430;-76
2022/06/27 00:20:49;;;;;;;8.60;5.90;;;;;;;;;;5073471;28;20435;-76
2022/06/27 00:23:16;;;;;;;8.40;6.35;;;;;;;;;;5075308;28;20518;-76
2022/06/27 00:25:42;;;;;;;10.13;6.50;;;;;;;;;;5070686;28;20432;-76
2022/06/27 00:28:10;;;;;;;8.40;6.63;;;;;;;;;;5073664;28;20424;-76
2022/06/27 00:30:36;;;;;;;10.20;6.90;;;;;;;;;;5072388;28;20420;-76
2022/06/27 00:33:02;;;;;;;9.00;6.95;;;;;;;;;;5072192;28;20428;-76
2022/06/27 00:35:29;;;;;;;10.05;6.70;;;;;;;;;;5074956;28;20434;-76
2022/06/27 00:37:55;;;;;;;9.57;6.70;;;;;;;;;;5074642;28;20422;-76
2022/06/27 00:40:21;;;;;;;8.02;6.55;;;;;;;;;;5074715;28;20426;-76
2022/06/27 00:42:48;;;;;;;8.02;6.72;;;;;;;;;;5072407;28;20420;-76
2022/06/27 00:45:15;;;;;;;7.78;6.18;;;;;;;;;;5072640;28;20540;-76
2022/06/27 00:47:42;;;;;;;6.90;6.05;;;;;;;;;;5071593;28;20427;-76
2022/06/27 00:50:09;;;;;;;10.48;6.70;;;;;;;;;;5076906;28;20427;-76
2022/06/27 00:52:36;;;;;;;7.35;6.43;;;;;;;;;;5075823;28;20790;-76
2022/06/27 00:55:02;;;;;;;7.70;5.97;;;;;;;;;;5074655;28;20793;-76
2022/06/27 00:57:29;;;;;;;7.50;6.10;;;;;;;;;;5070285;28;20430;-76
2022/06/27 00:59:55;;;;;;;8.93;6.35;;;;;;;;;;5074802;28;20423;-75
2022/06/27 01:02:22;;;;;;;7.53;6.05;;;;;;;;;;5072111;28;20412;-75
2022/06/27 01:04:49;;;;;;;7.93;5.95;;;;;;;;;;5076109;28;20922;-75
2022/06/27 01:07:15;;;;;;;10.02;6.30;;;;;;;;;;5073668;28;20427;-75
2022/06/27 01:09:42;;;;;;;8.35;6.25;;;;;;;;;;5075927;28;20425;-75
2022/06/27 01:12:09;;;;;;;6.90;5.50;;;;;;;;;;5074404;28;20790;-75
2022/06/27 01:14:35;;;;;;;7.68;6.40;;;;;;;;;;5070248;28;20443;-76
2022/06/27 01:17:02;;;;;;;7.00;6.27;;;;;;;;;;5073176;28;20939;-75
2022/06/27 01:19:30;;;;;;;7.38;6.18;;;;;;;;;;5074934;28;20424;-75
2022/06/27 01:21:56;;;;;;;7.75;6.43;;;;;;;;;;5074470;28;20427;-75
2022/06/27 01:24:25;;;;;;;7.85;6.40;;;;;;;;;;5076170;28;20435;-76
2022/06/27 01:26:52;;;;;;;7.53;6.03;;;;;;;;;;5075970;28;20436;-76
2022/06/27 01:29:18;;;;;;;7.13;6.43;;;;;;;;;;5074876;28;20429;-75
2022/06/27 01:31:45;;;;;;;7.55;6.00;;;;;;;;;;5075682;28;20427;-76
2022/06/27 01:34:13;;;;;;;7.70;6.90;;;;;;;;;;5078728;28;20413;-76
2022/06/27 01:36:43;;;;;;;6.43;5.82;;;;;;;;;;5078991;28;20429;-75
2022/06/27 01:39:10;;;;;;;7.53;6.80;;;;;;;;;;5076244;28;20549;-75
2022/06/27 01:41:38;;;;;;;6.10;5.50;;;;;;;;;;5077284;28;20425;-75
2022/06/27 01:44:04;;;;;;;6.07;5.47;;;;;;;;;;5077352;28;20803;-76
2022/06/27 01:46:38;;;;;;;6.05;5.50;;;;;;;;;;5072591;28;20438;-76
2022/06/27 01:49:04;;;;;;;6.95;6.03;;;;;;;;;;5076725;28;20799;-75
2022/06/27 01:51:30;;;;;;;6.32;5.72;;;;;;;;;;5077018;28;20424;-75
2022/06/27 01:53:57;;;;;;;6.67;5.83;;;;;;;;;;5078370;28;20419;-75
2022/06/27 01:56:23;;;;;;;6.70;6.00;;;;;;;;;;5080215;28;20430;-76
2022/06/27 01:58:52;;;;;;;6.82;5.80;;;;;;;;;;5079989;28;20513;-76
2022/06/27 02:01:19;;;;;;;6.50;5.90;;;;;;;;;;5071543;28;20443;-76
2022/06/27 02:03:45;;;;;;;6.70;5.63;;;;;;;;;;5079255;28;20434;-76
2022/06/27 02:06:11;;;;;;;6.25;5.65;;;;;;;;;;5079439;28;20925;-76
2022/06/27 02:08:41;;;;;;;5.70;4.90;;;;;;;;;;5075733;28;20431;-76
2022/06/27 02:11:07;;;;;;;8.65;6.18;;;;;;;;;;5078532;28;20923;-76
2022/06/27 02:13:34;;;;;;;5.78;4.90;;;;;;;;;;5078341;28;20431;-76
2022/06/27 02:16:06;;;;;;;6.18;5.47;;;;;;;;;;5077518;28;20426;-76
2022/06/27 02:18:33;;;;;;;5.30;4.80;;;;;;;;;;5079227;28;20438;-76
2022/06/27 02:21:00;;;;;;;6.93;5.30;;;;;;;;;;5079563;28;21028;-76
2022/06/27 02:23:26;;;;;;;6.18;5.57;;;;;;;;;;5077914;28;20761;-76
2022/06/27 02:25:53;;;;;;;6.17;5.60;;;;;;;;;;5076263;28;20933;-76
2022/06/27 02:28:21;;;;;;;5.95;5.05;;;;;;;;;;5075890;28;20786;-76
2022/06/27 02:30:48;;;;;;;6.57;5.97;;;;;;;;;;5076019;28;20487;-76
2022/06/27 02:33:16;;;;;;;7.00;5.90;;;;;;;;;;5076167;28;20428;-76
2022/06/27 02:35:43;;;;;;;5.78;5.10;;;;;;;;;;5078923;28;20438;-76
2022/06/27 02:38:11;;;;;;;5.22;4.80;;;;;;;;;;5078244;28;20427;-76
2022/06/27 02:40:37;;;;;;;5.40;4.90;;;;;;;;;;5079151;28;20460;-76
2022/06/27 02:43:04;;;;;;;5.95;4.78;;;;;;;;;;5070460;28;20447;-76
2022/06/27 02:45:31;;;;;;;6.10;5.50;;;;;;;;;;5076304;28;20456;-76
2022/06/27 02:47:57;;;;;;;5.13;4.73;;;;;;;;;;5076943;28;20877;-76
2022/06/27 02:50:26;;;;;;;5.70;4.70;;;;;;;;;;5078905;28;20420;-76
2022/06/27 02:52:55;;;;;;;5.70;5.10;;;;;;;;;;5074627;28;20494;-76
2022/06/27 02:55:24;;;;;;;6.20;5.30;;;;;;;;;;5076604;28;20443;-76
2022/06/27 02:57:52;;;;;;;6.28;5.40;;;;;;;;;;5077799;28;20441;-76
2022/06/27 03:00:18;;;;;;;6.63;5.72;;;;;;;;;;5073896;28;20421;-76
2022/06/27 03:02:46;;;;;;;6.30;5.70;;;;;;;;;;5072972;28;20425;-76
2022/06/27 03:05:12;;;;;;;6.28;5.68;;;;;;;;;;5078574;28;20433;-76
2022/06/27 03:07:40;;;;;;;6.55;5.35;;;;;;;;;;5076534;28;20411;-76
2022/06/27 03:10:06;;;;;;;5.50;5.00;;;;;;;;;;5076360;28;20427;-76
2022/06/27 03:12:33;;;;;;;6.85;5.10;;;;;;;;;;5074950;28;20419;-75
2022/06/27 03:14:59;;;;;;;5.53;4.93;;;;;;;;;;5076616;28;20432;-75
2022/06/27 03:17:25;;;;;;;6.57;4.93;;;;;;;;;;5075588;28;20422;-75
2022/06/27 03:19:52;;;;;;;6.20;4.20;;;;;;;;;;5075814;28;20450;-75
2022/06/27 03:22:19;;;;;;;4.80;4.30;;;;;;;;;;5075214;28;20435;-76
2022/06/27 03:24:47;;;;;;;7.03;4.32;;;;;;;;;;5076635;28;20433;-76
2022/06/27 03:27:13;;;;;;;5.40;3.95;;;;;;;;;;5078086;28;20431;-76
2022/06/27 03:29:39;;;;;;;9.40;4.70;;;;;;;;;;5078295;28;20431;-76
2022/06/27 03:32:06;;;;;;;6.20;5.00;;;;;;;;;;5073250;28;20433;-76
2022/06/27 03:34:33;;;;;;;6.03;4.50;;;;;;;;;;5065967;28;20434;-76
2022/06/27 03:36:59;;;;;;;5.15;4.47;;;;;;;;;;5071661;28;20431;-76
2022/06/27 03:39:26;;;;;;;4.85;4.40;;;;;;;;;;5065031;28;21128;-76
2022/06/27 03:41:53;;;;;;;7.30;4.90;;;;;;;;;;5075052;28;20432;-76
2022/06/27 03:44:20;;;;;;;8.63;4.83;;;;;;;;;;5075793;28;20418;-76
2022/06/27 03:46:46;;;;;;;5.97;4.75;;;;;;;;;;5073149;28;20431;-76
2022/06/27 03:51:56;;;;;;;5.10;4.60;;;;;;;;;;5075528;28;20462;-76
2022/06/27 03:54:22;;;;;;;6.03;4.40;;;;;;;;;;5073933;28;20509;-76
2022/06/27 03:56:49;;;;;;;5.30;4.35;;;;;;;;;;5072122;28;21056;-76
2022/06/27 03:59:16;;;;;;;5.17;4.03;;;;;;;;;;5074992;28;20439;-76
2022/06/27 04:01:43;;;;;;;6.30;3.90;;;;;;;;;;5074019;28;20467;-76
2022/06/27 04:04:09;;;;;;;4.55;3.97;;;;;;;;;;5073030;28;20960;-76
2022/06/27 04:06:35;;;;;;;7.72;3.95;;;;;;;;;;5072806;28;20426;-76
2022/06/27 04:09:02;;;;;;;5.00;3.60;;;;;;;;;;5075006;28;20789;-76
2022/06/27 04:11:28;;;;;;;4.50;4.10;;;;;;;;;;5070460;28;20439;-76
2022/06/27 04:13:54;;;;;;;4.75;4.03;;;;;;;;;;5077631;28;20413;-76
2022/06/27 04:16:22;;;;;;;6.22;3.90;;;;;;;;;;5077061;28;20431;-76
2022/06/27 04:18:48;;;;;;;5.18;3.90;;;;;;;;;;5074498;28;20422;-76
2022/06/27 04:21:14;;;;;;;6.03;3.90;;;;;;;;;;5072234;28;20791;-76
2022/06/27 04:23:41;;;;;;;4.50;4.10;;;;;;;;;;5075950;28;20774;-76
2022/06/27 04:26:07;;;;;;;5.90;4.70;;;;;;;;;;5075299;28;20432;-76
2022/06/27 04:28:34;;;;;;;7.30;4.13;;;;;;;;;;5067698;28;20422;-76
2022/06/27 04:31:01;;;;;;;7.10;3.95;;;;;;;;;;5071896;28;20421;-76
2022/06/27 04:33:29;;;;;;;6.15;3.85;;;;;;;;;;5066438;28;20512;-76
2022/06/27 04:35:55;;;;;;;4.80;3.90;;;;;;;;;;5072614;28;20431;-76
2022/06/27 04:38:22;;;;;;;5.45;3.90;;;;;;;;;;5073108;28;20434;-76
2022/06/27 04:40:48;;;;;;;4.97;4.10;;;;;;;;;;5076521;28;20435;-76
2022/06/27 04:43:15;;;;;;;7.50;4.43;;;;;;;;;;5073520;28;20461;-75
2022/06/27 04:45:41;;;;;;;6.30;4.30;;;;;;;;;;5074539;28;20463;-76
2022/06/27 04:48:09;;;;;;;5.50;4.10;;;;;;;;;;5073875;28;20845;-76
2022/06/27 04:50:38;;;;;;;6.50;4.17;;;;;;;;;;5076297;28;20525;-76
2022/06/27 04:53:05;;;;;;;5.18;3.50;;;;;;;;;;5069633;28;20457;-76
2022/06/27 04:55:31;;;;;;;3.83;3.42;;;;;;;;;;5074961;28;20435;-76
2022/06/27 04:57:58;;;;;;;6.70;4.13;;;;;;;;;;5068796;28;20441;-76
2022/06/27 05:00:24;;;;;;;6.80;4.40;;;;;;;;;;5066245;28;20438;-76
2022/06/27 05:02:50;;;;;;;7.18;4.75;;;;;;;;;;5067951;28;20428;-76
2022/06/27 05:05:17;;;;;;;6.47;4.30;;;;;;;;;;5073449;28;20431;-76
2022/06/27 05:07:44;;;;;;;6.30;4.70;;;;;;;;;;5075007;28;20416;-76
2022/06/27 05:10:11;;;;;;;6.35;4.88;;;;;;;;;;5073438;28;20919;-76
2022/06/27 05:12:37;;;;;;;5.83;5.00;;;;;;;;;;5073241;28;20413;-76
2022/06/27 05:15:04;;;;;;;6.60;5.38;;;;;;;;;;5071204;28;20974;-76
2022/06/27 05:17:30;;;;;;;6.65;4.65;;;;;;;;;;5075983;28;20424;-76
2022/06/27 05:19:57;;;;;;;6.22;5.60;;;;;;;;;;5074062;28;20432;-75
2022/06/27 05:22:23;;;;;;;6.68;5.30;;;;;;;;;;5076479;28;20414;-76
2022/06/27 05:24:51;;;;;;;6.22;4.90;;;;;;;;;;5073147;28;20426;-76
2022/06/27 05:27:17;;;;;;;7.00;5.13;;;;;;;;;;5075970;28;20423;-76
2022/06/27 05:29:44;;;;;;;7.47;4.93;;;;;;;;;;5071969;28;20438;-76
2022/06/27 05:32:10;;;;;;;7.50;4.75;;;;;;;;;;5070992;28;20414;-76
2022/06/27 05:34:37;;;;;;;5.63;4.63;;;;;;;;;;5075636;28;20423;-76
2022/06/27 05:37:04;;;;;;;5.78;4.80;;;;;;;;;;5071332;28;20904;-76
2022/06/27 05:39:32;;;;;;;4.63;4.23;;;;;;;;;;5070689;28;20424;-76
2022/06/27 05:42:00;;;;;;;8.27;4.60;;;;;;;;;;5068631;28;20450;-77
2022/06/27 05:44:27;;;;;;;7.55;4.95;;;;;;;;;;5068513;28;20439;-76
2022/06/27 05:46:55;;;;;;;6.65;4.68;;;;;;;;;;5074707;28;20447;-76
2022/06/27 05:49:21;;;;;;;8.60;4.90;;;;;;;;;;5077903;28;20413;-77
2022/06/27 05:51:49;;;;;;;5.10;4.50;;;;;;;;;;5075070;28;20420;-77
2022/06/27 05:54:16;;;;;;;5.47;4.97;;;;;;;;;;5073321;28;20427;-77
2022/06/27 05:56:42;;;;;;;4.78;3.92;;;;;;;;;;5089693;22;20426;-76
2022/06/27 05:59:10;;;;;;;4.93;4.10;;;;;;;;;;5074001;28;20431;-77
2022/06/27 06:01:37;;;;;;;7.75;4.00;;;;;;;;;;5071185;28;20430;-76
2022/06/27 06:04:03;;;;;;;6.57;3.72;;;;;;;;;;5074135;28;20439;-76
2022/06/27 06:06:30;;;;;;;7.10;4.30;;;;;;;;;;5068935;28;20467;-76
2022/06/27 06:08:57;;;;;;;4.78;4.10;;;;;;;;;;5038590;28;20447;-76
2022/06/27 06:11:24;;;;;;;4.50;3.67;;;;;;;;;;5038615;28;20437;-76
2022/06/27 06:13:52;;;;;;;6.25;3.72;;;;;;;;;;5038291;28;20425;-76
2022/06/27 06:16:20;;;;;;;4.88;3.80;;;;;;;;;;5038336;28;20478;-76
2022/06/27 06:18:50;;;;;;;6.70;3.90;;;;;;;;;;5039491;28;20481;-77
2022/06/27 06:21:17;;;;;;;5.88;3.65;;;;;;;;;;5039311;28;20432;-76
2022/06/27 06:23:43;;;;;;;7.90;3.70;;;;;;;;;;5041332;28;20428;-76
2022/06/27 06:26:10;;;;;;;5.15;3.90;;;;;;;;;;5041641;28;20416;-76
2022/06/27 06:28:37;;;;;;;5.40;4.30;;;;;;;;;;5042489;28;20475;-76
2022/06/27 06:31:03;;;;;;;5.15;3.67;;;;;;;;;;5040805;28;20916;-76
2022/06/27 06:33:31;;;;;;;4.55;4.15;;;;;;;;;;5041494;28;20940;-76
2022/06/27 06:35:58;;;;;;;4.30;3.50;;;;;;;;;;5040064;28;20435;-76
2022/06/27 06:38:25;;;;;;;8.20;4.25;;;;;;;;;;5040690;28;20444;-76
2022/06/27 06:40:51;;;;;;;6.28;4.15;;;;;;;;;;5042154;28;20522;-76
2022/06/27 06:43:18;;;;;;;4.80;3.83;;;;;;;;;;5041345;28;20419;-76
2022/06/27 06:45:45;;;;;;;4.60;3.50;;;;;;;;;;5042711;28;20427;-76
2022/06/27 06:48:13;;;;;;;4.70;3.40;;;;;;;;;;5040709;28;20421;-76
2022/06/27 06:50:41;;;;;;;4.13;3.72;;;;;;;;;;5040566;28;20425;-77
2022/06/27 06:53:07;;;;;;;3.80;3.40;;;;;;;;;;5040953;28;20487;-77
2022/06/27 06:55:33;;;;;;;4.17;3.53;;;;;;;;;;5040362;28;20802;-76
2022/06/27 06:58:00;;;;;;;5.85;3.63;;;;;;;;;;5040022;28;20426;-76
2022/06/27 07:00:27;;;;;;;4.43;4.03;;;;;;;;;;5041055;28;20458;-76
2022/06/27 07:02:55;;;;;;;6.20;4.30;;;;;;;;;;5042300;28;20437;-76
2022/06/27 07:05:22;;;;;;;4.55;3.90;;;;;;;;;;5039104;28;20896;-76
2022/06/27 07:07:51;;;;;;;4.20;3.80;;;;;;;;;;5040814;28;20433;-77
2022/06/27 07:10:18;;;;;;;3.95;3.50;;;;;;;;;;5041680;28;21029;-77
2022/06/27 07:12:45;;;;;;;3.83;3.45;;;;;;;;;;5037800;28;20950;-76
2022/06/27 07:15:12;;;;;;;6.25;3.55;;;;;;;;;;5040220;28;20433;-76
2022/06/27 07:17:42;;;;;;;4.10;3.67;;;;;;;;;;5040782;28;20900;-77
2022/06/27 07:20:09;;;;;;;5.50;3.70;;;;;;;;;;5042531;28;20420;-76
2022/06/27 07:22:35;;;;;;;4.00;3.30;;;;;;;;;;5039647;28;20413;-76
2022/06/27 07:25:03;;;;;;;5.00;3.45;;;;;;;;;;5040881;28;20435;-76
2022/06/27 07:27:30;;;;;;;4.95;3.50;;;;;;;;;;5039263;28;20426;-76
2022/06/27 07:29:57;;;;;;;4.00;3.70;;;;;;;;;;5040384;28;20439;-76
2022/06/27 07:32:25;;;;;;;3.90;3.50;;;;;;;;;;5040110;28;20876;-77
2022/06/27 07:34:54;;;;;;;3.95;3.65;;;;;;;;;;5037883;28;20438;-77
2022/06/27 07:37:21;;;;;;;6.40;4.10;;;;;;;;;;5040744;28;20509;-77
2022/06/27 07:39:49;;;;;;;5.15;3.83;;;;;;;;;;5040112;28;20429;-77
2022/06/27 07:42:17;;;;;;;4.28;3.85;;;;;;;;;;5039883;28;20417;-77
2022/06/27 07:44:43;;;;;;;5.10;3.90;;;;;;;;;;5040090;28;20419;-77
2022/06/27 07:47:09;;;;;;;3.80;3.50;;;;;;;;;;5038141;28;20425;-76
2022/06/27 07:49:36;;;;;;;5.67;4.10;;;;;;;;;;5040346;28;20906;-76
2022/06/27 07:52:02;;;;;;;4.40;4.00;;;;;;;;;;5038727;28;20415;-77
2022/06/27 07:54:29;;;;;;;4.45;4.05;;;;;;;;;;5040409;28;20440;-77
2022/06/27 07:56:55;;;;;;;7.17;4.53;;;;;;;;;;5039161;28;21332;-77
2022/06/27 07:59:25;;;;;;;5.45;4.53;;;;;;;;;;5040589;28;20433;-77
2022/06/27 08:01:51;;;;;;;7.57;4.10;;;;;;;;;;5039767;28;20501;-77
2022/06/27 08:04:18;;;;;;;4.85;4.35;;;;;;;;;;5040455;28;20434;-77
2022/06/27 08:06:45;;;;;;;5.50;4.00;;;;;;;;;;5040147;28;20516;-77
2022/06/27 08:09:12;;;;;;;6.43;4.40;;;;;;;;;;5038582;28;20442;-77
2022/06/27 08:11:39;;;;;;;5.22;3.50;;;;;;;;;;5040657;28;20467;-76
2022/06/27 08:14:05;;;;;;;5.03;4.20;;;;;;;;;;5037739;28;20432;-76
2022/06/27 08:16:34;;;;;;;4.97;4.00;;;;;;;;;;5037497;28;20429;-76
2022/06/27 08:19:00;;;;;;;5.40;3.63;;;;;;;;;;5039575;28;20431;-76
2022/06/27 08:21:28;;;;;;;6.30;4.15;;;;;;;;;;5039740;28;20521;-76
2022/06/27 08:23:56;;;;;;;6.00;4.20;;;;;;;;;;5038629;28;20438;-76
2022/06/27 08:26:23;;;;;;;4.50;4.05;;;;;;;;;;5040633;28;20440;-77
2022/06/27 08:28:50;;;;;;;6.45;4.25;;;;;;;;;;5039066;28;20437;-76
2022/06/27 08:31:17;;;;;;;6.22;4.18;;;;;;;;;;5039570;28;20912;-76
2022/06/27 08:33:46;;;;;;;6.47;4.00;;;;;;;;;;5038916;28;20429;-76
2022/06/27 08:36:14;;;;;;;11.88;6.97;;;;;;;;;;5037467;28;21022;-76
2022/06/27 08:38:42;;;;;;;7.15;4.30;;;;;;;;;;5039674;28;20419;-76
2022/06/27 08:41:09;;;;;;;5.90;4.17;;;;;;;;;;5038810;28;20890;-76
2022/06/27 08:43:36;;;;;;;6.03;4.22;;;;;;;;;;5040194;28;21214;-76
2022/06/27 08:46:03;;;;;;;6.20;4.07;;;;;;;;;;5039551;28;20890;-76
2022/06/27 08:48:29;;;;;;;6.75;4.18;;;;;;;;;;5039468;28;20435;-76
2022/06/27 08:50:59;;;;;;;5.65;3.97;;;;;;;;;;5039808;28;20413;-76
2022/06/27 08:53:26;;;;;;;6.88;4.88;;;;;;;;;;5036825;28;20451;-76
2022/06/27 08:55:52;;;;;;;6.28;4.40;;;;;;;;;;5038194;28;20457;-76
2022/06/27 08:58:19;;;;;;;7.50;4.33;;;;;;;;;;5036678;28;20429;-76
2022/06/27 09:00:46;;;;;;;5.22;3.80;;;;;;;;;;5040563;28;20429;-76
2022/06/27 09:03:13;;;;;;;8.20;4.22;;;;;;;;;;5039050;28;20431;-76
2022/06/27 09:05:40;;;;;;;8.52;4.40;;;;;;;;;;5036467;28;20943;-76
2022/06/27 09:08:09;;;;;;;5.63;4.38;;;;;;;;;;5037722;28;20454;-76
2022/06/27 09:10:37;;;;;;;5.07;4.57;;;;;;;;;;5037398;28;20433;-76
2022/06/27 09:13:05;;;;;;;4.70;4.20;;;;;;;;;;5039136;28;20419;-76
2022/06/27 09:15:45;;;;;;;6.22;3.80;;;;;;;;;;5039541;28;20540;-76
2022/06/27 09:18:12;;;;;;;6.00;4.60;;;;;;;;;;5039527;28;20421;-76
2022/06/27 09:20:46;;;;;;;4.40;4.00;;;;;;;;;;5038370;28;20443;-76
2022/06/27 09:23:31;;;;;;;6.10;4.63;;;;;;;;;;5038229;28;20457;-76
2022/06/27 09:25:58;;;;;;;4.70;4.30;;;;;;;;;;5038914;28;20434;-77
2022/06/27 09:28:36;;;;;;;6.00;5.50;;;;;;;;;;5038920;28;20429;-77
2022/06/27 09:31:02;;;;;;;6.70;5.43;;;;;;;;;;5038836;28;20851;-76
2022/06/27 09:33:31;;;;;;;6.07;5.15;;;;;;;;;;5038702;28;21079;-77
2022/06/27 09:35:57;;;;;;;5.80;5.30;;;;;;;;;;5039782;28;20435;-77
2022/06/27 09:38:25;;;;;;;6.07;5.57;;;;;;;;;;5036801;28;20440;-76
2022/06/27 09:40:53;;;;;;;6.90;5.65;;;;;;;;;;5036967;28;20433;-77
2022/06/27 09:43:22;;;;;;;6.00;5.38;;;;;;;;;;5038289;28;20419;-76
2022/06/27 09:45:48;;;;;;;9.10;5.70;;;;;;;;;;5036714;28;20515;-76
2022/06/27 09:48:16;;;;;;;6.93;6.20;;;;;;;;;;5038690;28;20797;-76
2022/06/27 09:50:44;;;;;;;6.47;5.93;;;;;;;;;;5037804;28;20426;-76
2022/06/27 09:53:10;;;;;;;8.43;6.70;;;;;;;;;;5042635;28;20510;-76
2022/06/27 09:55:37;;;;;;;7.35;6.55;;;;;;;;;;5040551;28;20433;-77
2022/06/27 09:58:06;;;;;;;7.05;6.35;;;;;;;;;;5041152;28;20455;-76
2022/06/27 10:00:32;;;;;;;7.30;6.55;;;;;;;;;;5040897;28;20430;-76
2022/06/27 10:02:59;;;;;;;6.85;6.10;;;;;;;;;;5042410;28;20776;-77
2022/06/27 10:05:26;;;;;;;7.63;6.93;;;;;;;;;;5042377;28;20967;-77
2022/06/27 10:07:54;;;;;;;7.32;6.15;;;;;;;;;;5042277;28;20858;-76
2022/06/27 10:10:21;;;;;;;6.00;5.40;;;;;;;;;;5044406;28;20423;-76
2022/06/27 10:12:56;;;;;;;6.68;6.07;;;;;;;;;;5041983;28;20422;-76
2022/06/27 10:15:25;;;;;;;6.78;6.18;;;;;;;;;;5043099;28;20436;-76
2022/06/27 10:17:55;;;;;;;7.05;6.35;;;;;;;;;;5040816;28;20421;-76
2022/06/27 10:20:28;;;;;;;7.45;6.75;;;;;;;;;;5042291;28;20436;-76
2022/06/27 10:23:13;;;;;;;7.83;7.13;;;;;;;;;;5040127;28;20425;-76
2022/06/27 10:25:40;;;;;;;9.68;7.00;;;;;;;;;;5041245;28;20473;-76
2022/06/27 10:28:16;;;;;;;7.40;6.47;;;;;;;;;;5040922;28;20498;-76
2022/06/27 10:30:44;;;;;;;7.10;6.40;;;;;;;;;;5042037;28;20441;-76
2022/06/27 10:33:29;;;;;;;10.27;5.97;;;;;;;;;;5040270;28;20436;-76
2022/06/27 10:36:02;;;;;;;6.68;6.07;;;;;;;;;;5041371;28;20561;-76
2022/06/27 10:38:31;;;;;;;6.50;5.45;;;;;;;;;;5041200;28;20425;-77
2022/06/27 10:40:58;;;;;;;6.53;5.55;;;;;;;;;;5042602;28;20428;-76
2022/06/27 10:43:45;;;;;;;6.57;5.97;;;;;;;;;;5042545;28;20427;-76
2022/06/27 10:46:30;;;;;;;7.93;5.60;;;;;;;;;;5041653;28;20434;-76
2022/06/27 10:48:58;;;;;;;5.60;5.10;;;;;;;;;;5040095;28;20425;-77
2022/06/27 10:51:26;;;;;;;8.32;5.35;;;;;;;;;;5039366;28;20437;-77
2022/06/27 10:54:08;;;;;;;6.38;5.78;;;;;;;;;;5041247;28;20431;-76
2022/06/27 10:56:35;;;;;;;7.38;5.60;;;;;;;;;;5039040;28;20425;-76
2022/06/27 10:59:03;;;;;;;5.80;5.10;;;;;;;;;;5040625;28;20425;-76
2022/06/27 11:01:30;;;;;;;7.82;5.57;;;;;;;;;;5041080;28;20429;-76
2022/06/27 11:03:58;;;;;;;6.57;5.87;;;;;;;;;;5039762;28;20421;-76
2022/06/27 11:06:25;;;;;;;6.27;5.63;;;;;;;;;;5040185;28;20437;-76
2022/06/27 11:08:52;;;;;;;8.45;6.05;;;;;;;;;;5038116;28;20432;-76
2022/06/27 11:11:20;;;;;;;6.25;5.65;;;;;;;;;;5040565;28;20433;-76
2022/06/27 11:13:48;;;;;;;6.20;5.60;;;;;;;;;;5041283;28;21123;-76
2022/06/27 11:16:15;;;;;;;6.20;5.60;;;;;;;;;;5041925;28;20433;-76
2022/06/27 11:18:43;;;;;;;7.35;6.55;;;;;;;;;;5039177;28;20420;-76
2022/06/27 11:21:11;;;;;;;6.53;5.93;;;;;;;;;;5041458;28;20918;-76
2022/06/27 11:23:47;;;;;;;6.07;5.47;;;;;;;;;;5039751;28;20430;-76
2022/06/27 11:26:14;;;;;;;6.07;5.50;;;;;;;;;;5038498;28;20932;-76
2022/06/27 11:34:08;;;;;;;6.75;5.22;;;;;;;;;;5041597;28;20428;-76
2022/06/27 11:36:36;;;;;;;6.70;5.15;;;;;;;;;;5038018;28;20475;-76
2022/06/27 11:39:03;;;;;;;6.15;5.40;;;;;;;;;;5039922;28;20954;-76
2022/06/27 11:41:30;;;;;;;6.50;5.90;;;;;;;;;;5040093;28;20426;-76
2022/06/27 11:43:58;;;;;;;8.40;6.78;;;;;;;;;;5038697;28;20430;-76
2022/06/27 11:46:29;;;;;;;9.07;8.00;;;;;;;;;;5040719;28;20438;-76
2022/06/27 11:48:56;;;;;;;10.60;8.30;;;;;;;;;;5039722;28;20421;-76
2022/06/27 11:51:25;;;;;;;9.85;8.18;;;;;;;;;;5041736;28;20417;-76
2022/06/27 11:53:55;;;;;;;14.57;11.77;;;;;;;;;;5039095;28;20425;-76
2022/06/27 11:56:23;;;;;;;11.43;10.23;;;;;;;;;;5039801;28;20425;-76
2022/06/27 11:58:49;;;;;;;11.20;10.00;;;;;;;;;;5080884;22;20844;-74
2022/06/27 12:01:15;;;;;;;10.95;9.50;;;;;;;;;;5075479;28;20459;-74
2022/06/27 12:04:02;;;;;;;12.00;10.70;;;;;;;;;;5077136;28;20419;-74
2022/06/27 12:06:29;;;;;;;11.38;10.18;;;;;;;;;;5076513;28;20430;-74
2022/06/27 12:09:01;;;;;;;13.52;12.07;;;;;;;;;;5063216;28;20411;-75
2022/06/27 12:11:29;;;;;;;15.32;13.77;;;;;;;;;;5058441;28;20431;-74
2022/06/27 12:13:58;;;;;;;18.77;16.98;;;;;;;;;;5057778;28;20443;-75
2022/06/27 12:16:25;;;;;;;21.50;19.40;;;;;;;;;;5059607;28;20432;-74
2022/06/27 12:18:52;;;;;;;22.73;20.58;;;;;;;;;;5056678;28;20455;-74
2022/06/27 12:21:18;;;;;;;21.35;19.35;;;;;;;;;;5060845;28;20929;-74
2022/06/27 12:23:44;;;;;;;20.80;18.80;;;;;;;;;;5060050;28;20424;-74
2022/06/27 12:26:12;;;;;;;19.02;17.02;;;;;;;;;;5062298;28;20425;-74
2022/06/27 12:28:40;;;;;;;18.95;17.05;;;;;;;;;;5057912;28;20440;-74
2022/06/27 12:31:06;;;;;;;13.57;12.35;;;;;;;;;;5060759;28;20416;-75
2022/06/27 12:33:33;;;;;;;12.30;11.30;;;;;;;;;;5059019;28;20417;-74
2022/06/27 12:35:59;;;;;;;11.93;10.85;;;;;;;;;;5060364;28;20907;-75
2022/06/27 12:38:26;;;;;;;11.00;10.07;;;;;;;;;;5059113;28;20427;-74
2022/06/27 12:41:11;;;;;;;10.10;9.10;;;;;;;;;;5058614;28;20932;-75
2022/06/27 12:43:39;;;;;;;9.40;8.48;;;;;;;;;;5058958;28;20542;-74
2022/06/27 12:46:05;;;;;;;8.68;7.85;;;;;;;;;;5059112;28;20422;-75
2022/06/27 12:48:32;;;;;;;10.80;9.30;;;;;;;;;;5057470;28;20427;-75
2022/06/27 12:50:58;;;;;;;10.55;9.60;;;;;;;;;;5060134;28;20420;-75
2022/06/27 12:53:25;;;;;;;15.05;10.88;;;;;;;;;;5056982;28;20421;-76
2022/06/27 12:55:52;;;;;;;13.60;12.30;;;;;;;;;;5059735;28;20437;-75
2022/06/27 12:58:18;;;;;;;14.75;13.25;;;;;;;;;;5060110;28;20769;-75
2022/06/27 13:00:46;;;;;;;12.75;11.45;;;;;;;;;;5059178;28;20428;-75
2022/06/27 13:03:13;;;;;;;10.90;9.90;;;;;;;;;;5058233;28;20421;-75
2022/06/27 13:05:39;;;;;;;10.07;9.00;;;;;;;;;;5059565;28;20437;-75
2022/06/27 13:08:06;;;;;;;9.77;8.88;;;;;;;;;;5058717;28;20432;-75
2022/06/27 13:10:32;;;;;;;11.20;10.10;;;;;;;;;;5057396;28;20433;-75
2022/06/27 13:12:58;;;;;;;10.10;9.20;;;;;;;;;;5059241;28;20824;-75
2022/06/27 13:15:25;;;;;;;9.70;8.70;;;;;;;;;;5060863;28;20446;-75
2022/06/27 13:17:52;;;;;;;7.85;7.15;;;;;;;;;;5058303;28;20412;-75
2022/06/27 13:20:19;;;;;;;8.02;7.32;;;;;;;;;;5058843;28;20444;-74
2022/06/27 13:22:45;;;;;;;7.95;7.13;;;;;;;;;;5059514;28;20413;-75
2022/06/27 13:25:11;;;;;;;8.23;7.23;;;;;;;;;;5059682;28;20432;-75
2022/06/27 13:27:38;;;;;;;7.97;7.28;;;;;;;;;;5062067;28;20550;-75
2022/06/27 13:30:05;;;;;;;8.85;8.10;;;;;;;;;;5064255;28;20427;-76
2022/06/27 13:32:31;;;;;;;8.00;7.30;;;;;;;;;;5064233;28;20827;-76
2022/06/27 13:34:59;;;;;;;7.80;7.05;;;;;;;;;;5063903;28;20434;-76
2022/06/27 13:37:25;;;;;;;7.72;7.03;;;;;;;;;;5062069;28;20904;-76
2022/06/27 13:39:52;;;;;;;6.53;5.80;;;;;;;;;;5062909;28;20438;-75
2022/06/27 13:42:18;;;;;;;6.17;5.57;;;;;;;;;;5063083;28;20461;-76
2022/06/27 13:44:45;;;;;;;5.80;5.20;;;;;;;;;;5062688;28;21013;-75
2022/06/27 13:47:11;;;;;;;5.20;4.80;;;;;;;;;;5061840;28;20413;-76
2022/06/27 13:49:38;;;;;;;5.77;4.70;;;;;;;;;;5063980;28;20434;-76
2022/06/27 13:52:06;;;;;;;4.93;4.53;;;;;;;;;;5061956;28;20419;-76
2022/06/27 13:54:33;;;;;;;6.43;5.50;;;;;;;;;;5060500;28;20424;-76
2022/06/27 13:56:59;;;;;;;6.28;5.18;;;;;;;;;;5061938;28;20439;-76
2022/06/27 13:59:26;;;;;;;6.50;4.90;;;;;;;;;;5059188;28;20970;-76
2022/06/27 14:01:53;;;;;;;6.53;5.87;;;;;;;;;;5060707;28;20427;-76
2022/06/27 14:04:19;;;;;;;7.90;5.70;;;;;;;;;;5061747;28;20424;-76
2022/06/27 14:09:30;;;;;;;5.40;4.90;;;;;;;;;;5062613;28;20396;-76
2022/06/27 14:11:57;;;;;;;5.90;5.40;;;;;;;;;;5061921;28;20451;-76
2022/06/27 14:14:23;;;;;;;6.60;5.90;;;;;;;;;;5062304;28;20906;-76
2022/06/27 14:16:50;;;;;;;6.90;6.20;;;;;;;;;;5062127;28;20437;-75
2022/06/27 14:19:17;;;;;;;7.10;5.97;;;;;;;;;;5062843;28;20454;-76
2022/06/27 14:21:43;;;;;;;6.60;5.35;;;;;;;;;;5061976;28;20436;-75
2022/06/27 14:24:11;;;;;;;8.50;6.67;;;;;;;;;;5063327;28;20423;-76
2022/06/27 14:26:38;;;;;;;7.90;6.43;;;;;;;;;;5061575;28;20518;-76
2022/06/27 14:29:05;;;;;;;9.45;6.20;;;;;;;;;;5061614;28;20425;-75
2022/06/27 14:31:31;;;;;;;6.20;5.60;;;;;;;;;;5062531;28;20435;-75
2022/06/27 14:33:58;;;;;;;6.23;5.63;;;;;;;;;;5061417;28;21702;-76
2022/06/27 14:36:26;;;;;;;6.72;6.13;;;;;;;;;;5059768;28;20433;-76
2022/06/27 14:38:52;;;;;;;6.80;5.47;;;;;;;;;;5059874;28;20502;-76
2022/06/27 14:41:18;;;;;;;9.18;6.22;;;;;;;;;;5063264;28;20436;-76
2022/06/27 14:43:46;;;;;;;6.73;6.10;;;;;;;;;;5060773;28;20779;-76
2022/06/27 14:46:13;;;;;;;7.75;6.00;;;;;;;;;;5062145;28;20456;-76
2022/06/27 14:48:39;;;;;;;7.40;6.30;;;;;;;;;;5061485;28;20485;-76
2022/06/27 14:51:05;;;;;;;8.30;6.80;;;;;;;;;;5061079;28;20423;-76
2022/06/27 14:53:32;;;;;;;7.60;6.80;;;;;;;;;;5061797;28;20430;-76